Time;durP1;ratioP1;P1;durP2;ratioP2;P2;SDS_P1;SDS_P2;PMS_P1;PMS_P2;Temp;Humidity;BMP_temperature;BMP_pressure;BME280_temperature;BME280_humidity;BME280_pressure;Samples;Min_cycle;Max_cycle;Signal;HPM_P1;HPM_P2
2022/03/29 00:00:22;;;;;;;29.50;24.60;;;;;;;;;;4916042;28;91638;-81
2022/03/29 00:06:56;;;;;;;27.30;24.07;;;;;;;;;;4927803;28;92023;-81
2022/03/29 00:09:42;;;;;;;30.77;25.83;;;;;;;;;;4927625;28;94373;-81
2022/03/29 00:12:31;;;;;;;31.93;27.00;;;;;;;;;;4914760;28;92176;-81
2022/03/29 00:15:18;;;;;;;29.00;23.97;;;;;;;;;;4912567;28;92331;-80
2022/03/29 00:18:07;;;;;;;32.70;27.13;;;;;;;;;;4907168;28;92339;-81
2022/03/29 00:20:53;;;;;;;37.63;30.23;;;;;;;;;;4907689;28;92171;-81
2022/03/29 00:24:07;;;;;;;34.10;30.40;;;;;;;;;;4904371;28;92313;-81
2022/03/29 00:26:53;;;;;;;36.20;28.53;;;;;;;;;;4906051;28;91990;-80
2022/03/29 00:29:53;;;;;;;34.23;28.00;;;;;;;;;;4904488;28;92578;-81
2022/03/29 00:42:58;;;;;;;37.73;30.93;;;;;;;;;;4955738;28;94821;-81
2022/03/29 00:45:45;;;;;;;38.37;34.17;;;;;;;;;;4966793;28;92196;-81
2022/03/29 00:48:32;;;;;;;36.93;30.70;;;;;;;;;;4966646;28;92124;-82
2022/03/29 00:51:19;;;;;;;40.80;33.20;;;;;;;;;;4971412;28;92364;-82
2022/03/29 01:01:20;;;;;;;44.33;37.13;;;;;;;;;;4972573;28;91547;-81
2022/03/29 01:04:07;;;;;;;47.20;39.50;;;;;;;;;;4970989;28;92139;-81
2022/03/29 01:07:14;;;;;;;54.13;42.50;;;;;;;;;;4971154;28;92072;-81
2022/03/29 01:10:02;;;;;;;54.43;42.30;;;;;;;;;;4972148;28;94430;-81
2022/03/29 01:12:54;;;;;;;52.17;42.60;;;;;;;;;;4970529;28;92166;-81
2022/03/29 01:15:41;;;;;;;60.17;46.07;;;;;;;;;;4969908;28;92460;-81
2022/03/29 01:18:57;;;;;;;51.00;42.83;;;;;;;;;;4968197;28;92412;-81
2022/03/29 01:21:45;;;;;;;56.20;41.90;;;;;;;;;;4968479;28;92093;-81
2022/03/29 01:24:55;;;;;;;56.67;45.40;;;;;;;;;;4953691;28;92299;-81
2022/03/29 01:27:42;;;;;;;54.27;41.63;;;;;;;;;;4951799;28;92208;-81
2022/03/29 01:31:00;;;;;;;51.67;43.20;;;;;;;;;;4954859;28;92423;-81
2022/03/29 01:33:46;;;;;;;55.50;42.77;;;;;;;;;;4970439;28;92297;-81
2022/03/29 01:36:38;;;;;;;53.87;43.87;;;;;;;;;;4956861;28;92397;-81
2022/03/29 01:39:25;;;;;;;60.83;46.17;;;;;;;;;;4943966;28;95057;-81
2022/03/29 03:06:37;;;;;;;45.80;37.00;;;;;;;;;;4977318;28;116220;-81
2022/03/29 03:09:24;;;;;;;44.20;35.40;;;;;;;;;;4988156;28;92453;-82
2022/03/29 03:12:11;;;;;;;47.00;36.70;;;;;;;;;;4988364;28;92424;-81
2022/03/29 03:14:58;;;;;;;45.50;38.03;;;;;;;;;;4985202;28;92618;-80
2022/03/29 03:18:01;;;;;;;42.63;36.33;;;;;;;;;;4983513;28;94630;-80
2022/03/29 03:20:48;;;;;;;45.17;35.13;;;;;;;;;;4987927;28;91976;-82
2022/03/29 03:23:41;;;;;;;44.23;34.00;;;;;;;;;;4974279;28;91999;-81
2022/03/29 03:26:28;;;;;;;38.20;31.90;;;;;;;;;;4972478;28;92233;-81
2022/03/29 03:29:24;;;;;;;39.67;33.53;;;;;;;;;;4971615;28;92353;-81
2022/03/29 03:32:12;;;;;;;41.57;33.60;;;;;;;;;;4970568;28;92271;-81
2022/03/29 03:34:58;;;;;;;40.33;34.10;;;;;;;;;;4960019;28;92096;-80
2022/03/29 03:37:45;;;;;;;40.73;35.17;;;;;;;;;;4960613;28;92624;-82
2022/03/29 03:41:05;;;;;;;39.27;32.10;;;;;;;;;;4977860;28;92005;-82
2022/03/29 03:43:51;;;;;;;36.43;31.77;;;;;;;;;;4955214;28;92293;-81
2022/03/29 03:50:11;;;;;;;35.40;30.03;;;;;;;;;;4975321;28;94957;-81
2022/03/29 03:53:00;;;;;;;36.60;29.93;;;;;;;;;;4976484;28;92283;-82
2022/03/29 03:56:07;;;;;;;36.53;29.17;;;;;;;;;;4971575;28;92317;-81
2022/03/29 03:58:53;;;;;;;34.23;29.70;;;;;;;;;;4969955;28;92518;-81
2022/03/29 04:02:06;;;;;;;37.40;31.67;;;;;;;;;;4955716;28;92497;-81
2022/03/29 04:04:52;;;;;;;37.00;31.23;;;;;;;;;;4963436;28;92001;-81
2022/03/29 04:08:08;;;;;;;36.37;29.67;;;;;;;;;;4949668;28;91348;-80
2022/03/29 04:10:56;;;;;;;36.03;29.90;;;;;;;;;;4944484;28;93958;-81
2022/03/29 04:14:05;;;;;;;39.23;31.40;;;;;;;;;;4946868;28;92094;-81
2022/03/29 04:16:52;;;;;;;39.77;28.80;;;;;;;;;;4947786;28;94573;-81
2022/03/29 19:11:25;;;;;;;682.33;640.80;;;;;;;;;;5180928;23;93027;-81
